Time;durP1;ratioP1;P1;durP2;ratioP2;P2;SDS_P1;SDS_P2;PMS_P1;PMS_P2;Temp;Humidity;BMP_temperature;BMP_pressure;BME280_temperature;BME280_humidity;BME280_pressure;Samples;Min_cycle;Max_cycle;Signal;HPM_P1;HPM_P2
2022/08/18 00:02:24;;;;;;;11.48;8.00;;;;;;;22.08;55.55;92375.41;2019993;71;20191;-71
2022/08/18 00:04:51;;;;;;;13.45;7.47;;;;;;;22.14;54.62;92371.91;2020423;71;20225;-72
2022/08/18 00:07:24;;;;;;;9.25;7.28;;;;;;;22.12;55.15;92377.59;2020816;71;20146;-71
2022/08/18 00:09:50;;;;;;;11.85;7.45;;;;;;;21.98;55.37;92378.09;2021199;71;20145;-71
2022/08/18 00:12:24;;;;;;;14.38;8.13;;;;;;;22.22;53.22;92392.06;2021340;71;20161;-71
2022/08/18 00:14:54;;;;;;;13.05;8.02;;;;;;;21.93;55.81;92384.47;2021541;71;20240;-69
2022/08/18 00:17:23;;;;;;;10.25;7.43;;;;;;;21.91;55.27;92384.47;2017768;71;20161;-71
2022/08/18 00:19:49;;;;;;;11.50;7.28;;;;;;;21.96;54.44;92394.56;2021178;71;20465;-71
2022/08/18 00:22:18;;;;;;;11.20;7.80;;;;;;;21.46;56.70;92395.28;2020667;71;20172;-71
2022/08/18 00:24:45;;;;;;;11.85;7.43;;;;;;;21.72;56.09;92406.41;2017926;71;20154;-72
2022/08/18 00:27:11;;;;;;;12.32;7.47;;;;;;;21.71;55.84;92411.38;2020921;71;20652;-72
2022/08/18 00:30:00;;;;;;;9.48;6.65;;;;;;;21.78;55.83;92410.06;2017978;71;20165;-71
2022/08/18 00:32:33;;;;;;;10.80;7.80;;;;;;;21.09;58.16;92408.25;2020982;71;20161;-72
2022/08/18 00:35:05;;;;;;;12.18;8.02;;;;;;;21.86;53.58;92415.22;2021098;71;20157;-71
2022/08/18 00:37:35;;;;;;;11.68;7.93;;;;;;;21.61;55.75;92416.25;2021128;71;20213;-72
2022/08/18 00:40:02;;;;;;;10.45;7.93;;;;;;;21.47;55.67;92413.88;2019888;71;20282;-73
2022/08/18 00:42:30;;;;;;;11.05;7.82;;;;;;;21.43;56.16;92408.81;2013957;71;20700;-72
2022/08/18 00:45:36;;;;;;;10.70;7.32;;;;;;;21.05;58.26;92406.03;2017661;71;20197;-72
2022/08/18 00:48:07;;;;;;;11.85;7.53;;;;;;;21.37;55.72;92408.00;2014546;71;20162;-73
2022/08/18 00:50:43;;;;;;;10.35;7.60;;;;;;;21.50;54.95;92404.66;2014543;71;20153;-72
2022/08/18 00:53:32;;;;;;;9.35;7.28;;;;;;;21.37;55.84;92408.00;2014070;71;20181;-72
2022/08/18 00:56:02;;;;;;;11.48;7.72;;;;;;;21.42;55.80;92415.25;2014556;71;20165;-71
2022/08/18 00:58:43;;;;;;;10.50;7.25;;;;;;;21.34;56.17;92417.97;2014465;71;20655;-73
2022/08/18 01:01:12;;;;;;;14.25;7.53;;;;;;;21.28;55.71;92413.56;2014554;71;20499;-72
2022/08/18 01:03:52;;;;;;;9.63;7.80;;;;;;;21.38;54.73;92415.91;2014618;71;20161;-71
2022/08/18 01:06:45;;;;;;;10.65;7.38;;;;;;;21.13;56.99;92417.63;2013780;71;20228;-72
2022/08/18 01:09:11;;;;;;;14.88;8.18;;;;;;;20.79;58.54;92406.28;2014108;71;20241;-72
2022/08/18 01:11:38;;;;;;;10.52;7.30;;;;;;;20.75;57.07;92403.34;2014156;71;20211;-72
2022/08/18 01:14:06;;;;;;;10.77;7.68;;;;;;;20.76;58.03;92410.53;2014126;71;20156;-73
2022/08/18 01:22:26;;;;;;;12.85;7.47;;;;;;;20.83;57.01;92394.19;2011179;71;20261;-71
2022/08/18 01:27:40;;;;;;;10.30;6.75;;;;;;;20.94;56.79;92396.53;2014040;71;20189;-72
2022/08/18 01:30:10;;;;;;;10.80;7.00;;;;;;;20.77;57.58;92398.38;2014003;71;20600;-72
2022/08/18 01:32:38;;;;;;;12.65;7.25;;;;;;;20.87;56.18;92397.84;2013169;71;20189;-70
2022/08/18 01:35:07;;;;;;;10.82;6.60;;;;;;;20.75;57.68;92403.34;2013829;71;20307;-70
2022/08/18 01:37:33;;;;;;;12.02;7.68;;;;;;;20.35;59.07;92400.41;2013900;71;20259;-72
2022/08/18 01:39:59;;;;;;;14.93;7.63;;;;;;;20.29;59.20;92398.16;2010578;71;20241;-71
2022/08/18 01:42:25;;;;;;;11.07;7.80;;;;;;;19.89;61.03;92395.91;2010941;71;20158;-71
2022/08/18 01:44:51;;;;;;;10.80;7.28;;;;;;;20.33;58.69;92391.78;2013361;71;20164;-72
2022/08/18 01:47:18;;;;;;;12.45;7.95;;;;;;;20.41;57.78;92409.09;2013781;71;20146;-72
2022/08/18 01:49:44;;;;;;;9.25;7.20;;;;;;;20.40;58.27;92414.09;2014087;71;20145;-71
2022/08/18 01:52:14;;;;;;;11.15;7.20;;;;;;;20.47;57.54;92395.66;2013992;71;20243;-72
2022/08/18 01:54:41;;;;;;;10.90;7.30;;;;;;;20.53;57.46;92392.22;2013903;71;20492;-72
2022/08/18 01:57:11;;;;;;;10.93;7.45;;;;;;;20.51;57.69;92389.31;2010719;71;20154;-72
2022/08/18 01:59:36;;;;;;;9.68;7.05;;;;;;;20.32;57.64;92396.78;2014189;71;20150;-72
2022/08/18 02:02:02;;;;;;;10.50;7.05;;;;;;;20.33;57.99;92409.66;2013989;71;20201;-72
2022/08/18 02:04:35;;;;;;;9.80;6.75;;;;;;;20.33;56.98;92409.66;2013997;71;20158;-72
2022/08/18 02:07:01;;;;;;;9.95;7.10;;;;;;;20.37;57.26;92415.47;2014091;71;20165;-72
2022/08/18 02:09:30;;;;;;;9.18;6.53;;;;;;;20.60;55.68;92422.38;2010798;71;20203;-72
2022/08/18 02:11:57;;;;;;;9.98;6.80;;;;;;;20.49;56.05;92426.44;2013450;71;20134;-73
2022/08/18 02:14:23;;;;;;;10.15;7.95;;;;;;;20.24;58.03;92428.78;2013764;71;20570;-73
2022/08/18 02:16:49;;;;;;;9.05;6.75;;;;;;;20.33;56.76;92429.66;2013815;71;20572;-72
2022/08/18 02:19:14;;;;;;;8.75;6.85;;;;;;;20.27;57.42;92429.56;2013167;71;20146;-73
2022/08/18 02:21:40;;;;;;;10.05;6.93;;;;;;;20.41;55.83;92418.41;2007755;71;20173;-71
2022/08/18 02:24:06;;;;;;;13.88;6.70;;;;;;;20.37;56.14;92412.59;2013811;71;20225;-72
2022/08/18 02:26:31;;;;;;;13.60;7.13;;;;;;;20.23;57.43;92407.31;2010587;71;20154;-73
2022/08/18 02:28:57;;;;;;;11.57;7.20;;;;;;;20.19;58.19;92406.53;2014029;71;20161;-73
2022/08/18 02:31:24;;;;;;;9.68;7.13;;;;;;;20.18;57.35;92413.66;2013671;71;20231;-71
2022/08/18 02:33:51;;;;;;;11.90;7.30;;;;;;;20.05;58.80;92407.66;2013801;71;20251;-72
2022/08/18 02:36:17;;;;;;;10.32;6.53;;;;;;;20.20;57.39;92402.25;2013158;71;20522;-73
2022/08/18 02:38:43;;;;;;;12.57;7.55;;;;;;;19.90;59.58;92419.50;2013800;71;20182;-72
2022/08/18 02:41:11;;;;;;;9.77;7.18;;;;;;;20.01;56.91;92421.16;2014434;71;20181;-71
2022/08/18 02:43:38;;;;;;;11.65;6.53;;;;;;;20.03;57.97;92418.34;2008425;71;20170;-71
2022/08/18 02:46:05;;;;;;;11.05;6.95;;;;;;;19.96;58.58;92417.47;2014215;71;20165;-70
2022/08/18 02:48:34;;;;;;;12.48;7.25;;;;;;;19.98;58.29;92414.69;2014204;71;20631;-72
2022/08/18 02:51:07;;;;;;;9.93;7.30;;;;;;;20.06;57.98;92388.41;2014285;71;20200;-71
2022/08/18 02:53:34;;;;;;;13.57;7.18;;;;;;;19.75;59.14;92404.19;2010725;71;20178;-71
2022/08/18 02:56:26;;;;;;;11.43;7.28;;;;;;;19.90;57.90;92419.50;2014278;71;20143;-71
2022/08/18 02:59:02;;;;;;;9.75;6.95;;;;;;;19.79;58.69;92390.72;2014839;71;20603;-72
2022/08/18 03:01:33;;;;;;;8.05;7.03;;;;;;;19.71;59.35;92395.53;2014730;71;20615;-72
2022/08/18 03:03:59;;;;;;;9.18;7.18;;;;;;;19.79;58.39;92395.69;2015022;71;20542;-72
2022/08/18 03:06:26;;;;;;;11.93;6.95;;;;;;;19.65;59.45;92404.66;2014751;71;20162;-72
2022/08/18 03:08:53;;;;;;;8.45;6.25;;;;;;;19.78;57.47;92394.94;2014804;71;20166;-72
2022/08/18 03:11:22;;;;;;;12.10;6.97;;;;;;;19.83;57.81;92384.34;2014842;71;20216;-72
2022/08/18 03:13:48;;;;;;;9.43;6.60;;;;;;;18.96;61.97;92385.88;2014792;71;20142;-73
2022/08/18 03:16:15;;;;;;;8.82;6.15;;;;;;;19.49;59.30;92392.84;2014558;71;20231;-74
2022/08/18 03:18:45;;;;;;;9.25;6.38;;;;;;;19.61;59.28;92390.31;2011730;71;20237;-73
2022/08/18 03:21:16;;;;;;;10.18;7.10;;;;;;;19.65;58.01;92392.50;2014909;71;20143;-73
2022/08/18 03:23:42;;;;;;;10.57;6.72;;;;;;;19.56;59.57;92397.28;2014887;71;20166;-73
2022/08/18 03:26:10;;;;;;;10.23;6.50;;;;;;;19.64;58.88;92402.50;2014612;71;20150;-74
2022/08/18 03:28:40;;;;;;;13.88;6.88;;;;;;;19.08;60.05;92400.44;2014820;71;20181;-74
2022/08/18 03:31:08;;;;;;;11.32;6.90;;;;;;;19.39;59.17;92399.06;2014731;71;20150;-73
2022/08/18 03:33:34;;;;;;;9.75;6.30;;;;;;;19.49;57.97;92396.44;2014832;71;20182;-73
2022/08/18 03:36:11;;;;;;;9.75;6.53;;;;;;;19.63;56.77;92384.63;2014667;71;20154;-74
2022/08/18 03:38:38;;;;;;;11.07;6.68;;;;;;;19.55;57.96;92387.28;2014802;71;20208;-72
2022/08/18 03:41:11;;;;;;;8.27;6.55;;;;;;;19.51;58.16;92376.47;2014780;71;20215;-72
2022/08/18 03:43:37;;;;;;;9.57;6.45;;;;;;;19.41;59.27;92372.69;2014835;71;20157;-72
2022/08/18 03:46:10;;;;;;;11.13;6.90;;;;;;;19.43;58.67;92361.31;2014703;71;20235;-72
2022/08/18 03:48:39;;;;;;;8.25;6.22;;;;;;;19.39;58.71;92384.78;2014829;71;20164;-72
2022/08/18 03:51:16;;;;;;;11.48;7.07;;;;;;;19.21;59.70;92381.50;2014684;71;20566;-72
2022/08/18 03:53:42;;;;;;;13.80;7.35;;;;;;;19.12;59.03;92359.88;2014997;71;20146;-73
2022/08/18 03:56:14;;;;;;;15.10;7.40;;;;;;;19.25;59.35;92365.22;2014636;71;20150;-71
2022/08/18 03:58:52;;;;;;;14.27;6.80;;;;;;;19.18;59.63;92340.78;2014718;71;20155;-72
2022/08/18 04:01:21;;;;;;;13.35;6.82;;;;;;;19.22;59.87;92331.59;2014662;71;20516;-72
2022/08/18 04:03:52;;;;;;;12.68;7.05;;;;;;;19.19;59.49;92339.38;2011236;71;20154;-72
2022/08/18 04:06:22;;;;;;;10.50;6.20;;;;;;;19.48;58.02;92332.19;2014730;71;20233;-72
2022/08/18 04:08:50;;;;;;;12.02;7.00;;;;;;;19.39;59.03;92329.84;2014883;71;20516;-72
2022/08/18 04:11:16;;;;;;;10.52;6.95;;;;;;;19.39;58.66;92330.56;2014808;71;20610;-72
2022/08/18 04:13:42;;;;;;;11.93;6.80;;;;;;;19.24;60.28;92331.63;2014853;71;20157;-72
2022/08/18 04:16:08;;;;;;;12.05;7.10;;;;;;;18.57;62.58;92350.69;2014535;71;20563;-71
2022/08/18 04:18:34;;;;;;;10.10;6.97;;;;;;;18.93;60.38;92338.75;2014873;71;20181;-72
2022/08/18 04:21:09;;;;;;;15.13;6.97;;;;;;;19.12;59.96;92339.91;2014819;71;20332;-72
2022/08/18 04:23:37;;;;;;;11.30;7.35;;;;;;;18.87;61.20;92355.72;2008635;71;20146;-72
2022/08/18 04:26:04;;;;;;;9.82;6.72;;;;;;;19.26;58.42;92368.78;2014592;71;20150;-72
2022/08/18 04:28:30;;;;;;;9.73;6.75;;;;;;;19.33;59.25;92364.66;2014724;71;20335;-72
2022/08/18 04:30:58;;;;;;;12.40;6.28;;;;;;;19.50;57.48;92360.75;2011386;71;20186;-72
2022/08/18 04:33:27;;;;;;;12.02;7.07;;;;;;;19.37;59.07;92353.31;2014826;71;20154;-74
2022/08/18 04:35:54;;;;;;;11.18;6.78;;;;;;;19.25;60.02;92361.63;2014561;71;20308;-73
2022/08/18 04:38:21;;;;;;;8.95;6.60;;;;;;;19.40;59.13;92366.25;2014567;71;20158;-73
2022/08/18 04:40:47;;;;;;;13.48;6.35;;;;;;;19.39;59.02;92375.50;2014473;71;20189;-73
2022/08/18 04:43:14;;;;;;;9.10;6.78;;;;;;;19.38;60.05;92380.50;2014724;71;20620;-72
2022/08/18 04:45:46;;;;;;;9.43;7.18;;;;;;;18.32;64.96;92399.88;2014571;71;20507;-73
2022/08/18 04:48:15;;;;;;;11.73;7.63;;;;;;;17.91;66.49;92416.53;2014680;71;20173;-72
2022/08/18 04:50:41;;;;;;;11.63;6.97;;;;;;;18.91;60.55;92410.72;2014583;71;20153;-73
2022/08/18 04:55:54;;;;;;;10.77;7.38;;;;;;;19.29;60.20;92415.94;2014632;71;20316;-72
2022/08/18 04:58:22;;;;;;;10.20;7.00;;;;;;;19.14;61.26;92429.13;2014601;71;20162;-72
2022/08/18 05:00:58;;;;;;;13.20;7.38;;;;;;;19.30;61.26;92449.50;2014611;71;20149;-72
2022/08/18 05:03:25;;;;;;;11.70;6.75;;;;;;;19.30;61.12;92435.25;2014503;71;20646;-72
2022/08/18 05:05:53;;;;;;;9.73;7.13;;;;;;;19.37;60.34;92441.81;2014606;71;20182;-73
2022/08/18 05:08:19;;;;;;;9.52;6.43;;;;;;;19.54;58.63;92443.66;2014445;71;20177;-73
2022/08/18 05:10:46;;;;;;;10.25;6.60;;;;;;;19.59;58.19;92440.88;2014687;71;20232;-73
2022/08/18 05:13:15;;;;;;;11.57;7.03;;;;;;;19.48;58.04;92432.09;2014646;71;20149;-73
2022/08/18 05:15:42;;;;;;;14.27;7.88;;;;;;;19.29;60.30;92436.66;2014479;71;20182;-73
2022/08/18 05:18:08;;;;;;;11.00;7.13;;;;;;;19.52;59.31;92434.31;2011074;71;20560;-73
2022/08/18 05:20:36;;;;;;;11.38;7.70;;;;;;;19.47;60.13;92424.94;2014700;71;20215;-73
2022/08/18 05:23:02;;;;;;;10.60;6.78;;;;;;;19.63;58.34;92429.59;2014636;71;20169;-73
2022/08/18 05:25:28;;;;;;;9.27;6.72;;;;;;;19.71;58.43;92426.94;2014392;71;20564;-73
2022/08/18 05:27:54;;;;;;;8.85;6.72;;;;;;;19.63;59.54;92424.59;2014531;71;20572;-74
2022/08/18 05:30:20;;;;;;;9.63;6.50;;;;;;;19.64;59.66;92437.47;2014588;71;20324;-73
2022/08/18 05:32:46;;;;;;;10.98;7.07;;;;;;;19.69;59.96;92436.16;2011004;71;20207;-72
2022/08/18 05:35:16;;;;;;;12.18;7.47;;;;;;;19.67;58.63;92426.84;2014409;71;20231;-72
2022/08/18 05:37:57;;;;;;;13.95;7.13;;;;;;;19.64;58.28;92425.31;2011177;71;20162;-72
2022/08/18 05:40:23;;;;;;;12.93;7.40;;;;;;;19.58;60.37;92422.31;2013582;71;20165;-72
2022/08/18 05:42:50;;;;;;;13.48;7.35;;;;;;;19.80;57.19;92426.44;2014424;71;20161;-71
2022/08/18 05:45:18;;;;;;;10.10;8.15;;;;;;;19.79;59.33;92427.84;2013845;71;20594;-73
2022/08/18 05:47:44;;;;;;;9.95;7.40;;;;;;;19.66;60.22;92425.38;2014331;71;20639;-73
2022/08/18 05:50:16;;;;;;;13.15;7.70;;;;;;;19.96;56.58;92408.91;2014188;71;20267;-72
2022/08/18 05:52:58;;;;;;;15.77;8.00;;;;;;;19.97;57.58;92409.63;2014388;71;20178;-73
2022/08/18 05:58:30;;;;;;;10.90;7.90;;;;;;;19.69;59.38;92407.59;2013900;71;20488;-72
2022/08/18 06:01:01;;;;;;;10.02;7.50;;;;;;;19.99;58.92;92418.97;2013679;71;20249;-73
2022/08/18 06:03:34;;;;;;;16.05;7.75;;;;;;;19.95;60.74;92423.88;2014354;71;20253;-75
2022/08/18 06:06:09;;;;;;;13.45;8.32;;;;;;;19.96;60.53;92419.59;2014532;71;20154;-73
2022/08/18 06:08:52;;;;;;;13.25;7.25;;;;;;;20.14;58.73;92425.72;2017167;71;20154;-73
2022/08/18 06:11:19;;;;;;;12.02;7.65;;;;;;;20.00;59.11;92431.84;2014462;71;20168;-73
2022/08/18 06:13:44;;;;;;;11.63;7.88;;;;;;;20.30;59.15;92436.78;2014385;71;20146;-73
2022/08/18 06:16:26;;;;;;;10.95;6.85;;;;;;;20.40;58.39;92436.25;2014291;71;20173;-73
2022/08/18 06:19:20;;;;;;;11.73;7.30;;;;;;;20.48;56.88;92451.47;2011238;71;20157;-74
2022/08/18 06:22:21;;;;;;;12.40;8.00;;;;;;;19.96;60.30;92453.88;2014447;71;20154;-74
2022/08/18 06:24:53;;;;;;;13.75;7.32;;;;;;;20.25;58.77;92455.22;2013673;71;20484;-73
2022/08/18 06:27:38;;;;;;;15.50;8.30;;;;;;;20.06;60.47;92446.25;2014613;71;20177;-73
2022/08/18 06:30:20;;;;;;;11.70;7.90;;;;;;;20.44;55.68;92444.91;2013864;71;20765;-71
2022/08/18 06:33:23;;;;;;;13.60;7.78;;;;;;;20.50;58.98;92447.91;2014355;71;20247;-74
2022/08/18 06:36:17;;;;;;;12.73;7.53;;;;;;;20.51;59.40;92441.50;2011074;71;20158;-71
2022/08/18 06:39:04;;;;;;;13.60;7.90;;;;;;;20.71;58.30;92434.72;2011535;71;20215;-70
2022/08/18 06:41:47;;;;;;;8.85;7.63;;;;;;;20.86;56.61;92436.44;2013157;71;20189;-71
2022/08/18 06:44:47;;;;;;;9.23;7.43;;;;;;;20.83;58.61;92437.81;2013804;71;20146;-71
2022/08/18 06:47:19;;;;;;;10.40;7.57;;;;;;;20.87;58.53;92431.44;2013906;71;20250;-72
2022/08/18 06:49:53;;;;;;;11.38;7.85;;;;;;;21.01;56.45;92432.41;2014285;71;20619;-73
2022/08/18 06:52:32;;;;;;;13.40;8.15;;;;;;;21.05;57.59;92428.91;2012502;71;20276;-73
2022/08/18 06:55:01;;;;;;;14.25;8.05;;;;;;;21.21;54.98;92437.78;2013907;71;20382;-72
2022/08/18 06:57:38;;;;;;;10.38;8.10;;;;;;;21.34;57.85;92438.00;2014142;71;20181;-74
2022/08/18 07:00:20;;;;;;;12.43;7.47;;;;;;;21.31;54.74;92432.25;2014084;71;20243;-70
2022/08/18 07:02:53;;;;;;;12.98;8.07;;;;;;;21.09;57.62;92443.31;2014140;71;20157;-74
2022/08/18 07:05:29;;;;;;;;;;;;;;;21.44;56.10;92444.66;2014130;71;20158;-72
2022/08/18 07:08:14;;;;;;;12.38;7.97;;;;;;;21.70;55.76;92455.06;2013753;71;20051;-73
2022/08/18 07:10:47;;;;;;;9.07;7.28;;;;;;;21.96;53.80;92452.59;2013980;71;20600;-75
2022/08/18 07:13:25;;;;;;;16.25;7.30;;;;;;;21.69;55.93;92459.34;2014220;71;20185;-71
2022/08/18 07:15:53;;;;;;;10.18;7.47;;;;;;;21.57;56.40;92454.13;2013998;71;20587;-72
2022/08/18 07:18:27;;;;;;;9.60;7.28;;;;;;;21.96;54.15;92440.41;2014083;71;20603;-73
2022/08/18 07:20:59;;;;;;;11.30;7.18;;;;;;;21.80;54.60;92430.16;2013790;71;20143;-71
2022/08/18 07:23:39;;;;;;;9.65;7.47;;;;;;;21.69;54.77;92414.22;2014064;71;20586;-72
2022/08/18 07:26:16;;;;;;;13.18;7.28;;;;;;;22.06;54.67;92394.69;2014313;71;20142;-72
2022/08/18 07:28:50;;;;;;;11.82;7.15;;;;;;;22.12;54.59;92394.06;2014574;71;20255;-70
2022/08/18 07:31:16;;;;;;;10.27;7.50;;;;;;;22.34;53.21;92385.75;2014463;71;20150;-72
2022/08/18 07:33:47;;;;;;;9.48;6.95;;;;;;;22.39;53.35;92389.38;2014686;71;20146;-71
2022/08/18 07:36:16;;;;;;;11.93;7.10;;;;;;;22.26;53.21;92405.72;2011202;71;20162;-73
2022/08/18 07:38:49;;;;;;;10.60;7.63;;;;;;;22.16;52.85;92420.66;2014690;71;20161;-69
2022/08/18 07:41:15;;;;;;;12.50;7.30;;;;;;;21.66;55.23;92432.09;2014675;71;20255;-72
2022/08/18 07:43:52;;;;;;;10.00;7.20;;;;;;;21.63;55.13;92433.47;2014369;71;20228;-70
2022/08/18 07:46:41;;;;;;;11.77;7.50;;;;;;;22.08;53.10;92432.72;2014900;71;20560;-76
2022/08/18 07:49:09;;;;;;;8.25;6.75;;;;;;;22.19;52.45;92432.88;2014665;71;20235;-74
2022/08/18 07:51:53;;;;;;;13.15;7.10;;;;;;;22.14;54.29;92448.56;2014723;71;20154;-75
2022/08/18 07:54:57;;;;;;;9.77;6.97;;;;;;;22.36;53.51;92448.88;2014759;71;20244;-74
2022/08/18 07:57:42;;;;;;;10.13;7.05;;;;;;;22.14;53.09;92446.44;2014536;71;20165;-70
2022/08/18 08:00:22;;;;;;;12.23;8.20;;;;;;;22.24;53.48;92440.09;2014541;71;20223;-70
2022/08/18 08:03:01;;;;;;;11.45;7.75;;;;;;;22.30;54.58;92438.03;2013744;71;20226;-70
2022/08/18 08:05:48;;;;;;;10.77;7.05;;;;;;;22.23;53.38;92433.66;2013383;71;20499;-72
2022/08/18 08:08:38;;;;;;;10.63;6.82;;;;;;;22.41;52.80;92412.38;2014588;71;20169;-71
2022/08/18 08:11:19;;;;;;;9.60;7.30;;;;;;;22.38;52.50;92403.00;2014696;71;20154;-70
2022/08/18 08:14:05;;;;;;;11.10;7.45;;;;;;;22.54;52.39;92408.19;2011482;71;20693;-72
2022/08/18 08:16:40;;;;;;;10.27;7.28;;;;;;;22.48;55.80;92400.25;2014566;71;20271;-74
2022/08/18 08:19:28;;;;;;;11.32;7.45;;;;;;;22.79;52.74;92389.84;2014705;71;20215;-72
2022/08/18 08:22:04;;;;;;;11.13;7.20;;;;;;;22.99;52.47;92385.75;2014863;71;20177;-72
2022/08/18 08:24:35;;;;;;;11.95;7.78;;;;;;;23.22;52.79;92393.16;2014177;71;20138;-70
2022/08/18 08:27:15;;;;;;;14.20;7.57;;;;;;;22.65;53.11;92394.72;2013901;71;20311;-71
2022/08/18 08:30:04;;;;;;;9.30;7.32;;;;;;;22.77;52.85;92375.50;2013980;71;20693;-71
2022/08/18 08:32:43;;;;;;;11.20;7.40;;;;;;;23.03;51.97;92352.06;2014604;71;20149;-72
2022/08/18 08:35:43;;;;;;;9.98;7.47;;;;;;;23.43;51.89;92358.88;2014749;71;20177;-72
2022/08/18 08:38:22;;;;;;;11.18;7.05;;;;;;;23.58;52.56;92348.91;2014775;71;20255;-73
2022/08/18 08:40:58;;;;;;;10.27;7.25;;;;;;;23.78;51.76;92349.09;2014790;71;20158;-71
2022/08/18 08:43:31;;;;;;;10.98;7.45;;;;;;;23.65;50.81;92341.81;2014909;71;20423;-71
2022/08/18 08:46:09;;;;;;;12.80;7.35;;;;;;;23.58;51.24;92346.75;2014759;71;20161;-71
2022/08/18 08:49:18;;;;;;;10.38;6.95;;;;;;;23.88;50.90;92351.28;2014255;71;20161;-72
2022/08/18 08:51:55;;;;;;;9.80;6.95;;;;;;;24.13;50.21;92345.66;2014887;71;20267;-72
2022/08/18 08:54:45;;;;;;;11.02;7.53;;;;;;;23.96;50.83;92331.22;2014871;71;20147;-71
2022/08/18 08:57:13;;;;;;;10.30;6.93;;;;;;;24.03;51.64;92324.06;2014840;71;20239;-72
2022/08/18 08:59:42;;;;;;;10.80;7.40;;;;;;;23.96;51.80;92330.47;2011603;71;20162;-71
2022/08/18 09:02:42;;;;;;;10.85;7.70;;;;;;;24.31;51.20;92320.56;2014814;71;20243;-72
2022/08/18 09:05:18;;;;;;;11.65;6.72;;;;;;;24.67;50.60;92322.16;2014951;71;20619;-74
2022/08/18 09:08:19;;;;;;;12.35;8.35;;;;;;;24.78;49.29;92320.00;2015023;71;20178;-72
2022/08/18 09:10:53;;;;;;;9.38;7.43;;;;;;;25.38;47.87;92320.78;2006097;71;20154;-72
2022/08/18 09:13:47;;;;;;;9.90;6.95;;;;;;;25.93;47.67;92314.97;2011543;71;20153;-72
2022/08/18 09:16:37;;;;;;;11.65;7.13;;;;;;;26.20;48.03;92319.22;2014767;71;20228;-73
2022/08/18 09:19:43;;;;;;;8.45;6.85;;;;;;;26.52;46.56;92320.56;2014806;71;20241;-71
2022/08/18 09:22:28;;;;;;;8.00;6.60;;;;;;;26.95;46.51;92318.16;2014375;71;20182;-72
2022/08/18 09:24:54;;;;;;;8.27;6.30;;;;;;;26.98;43.47;92310.19;2011691;71;20169;-72
2022/08/18 09:27:44;;;;;;;8.52;6.78;;;;;;;27.05;44.32;92315.19;2014229;71;20612;-72
2022/08/18 09:30:42;;;;;;;9.55;6.60;;;;;;;27.32;44.40;92333.09;2014717;71;20158;-72
2022/08/18 09:33:39;;;;;;;9.90;6.75;;;;;;;27.42;43.66;92340.25;2014852;71;20181;-72
2022/08/18 09:36:08;;;;;;;9.45;7.00;;;;;;;27.18;43.21;92346.94;2014831;71;20161;-71
2022/08/18 09:41:55;;;;;;;13.85;6.75;;;;;;;26.61;45.15;92357.31;2014625;71;20165;-73
2022/08/18 09:44:39;;;;;;;8.80;6.80;;;;;;;26.87;43.25;92355.75;2014818;71;20248;-73
2022/08/18 09:47:06;;;;;;;11.32;6.50;;;;;;;26.88;45.21;92350.69;2014725;71;20185;-73
2022/08/18 09:49:45;;;;;;;12.05;7.25;;;;;;;27.77;43.84;92341.41;2014772;71;20154;-72
2022/08/18 09:52:20;;;;;;;8.68;5.97;;;;;;;28.03;40.94;92316.56;2014803;71;20181;-74
2022/08/18 09:54:53;;;;;;;9.02;6.78;;;;;;;27.43;42.99;92309.88;2014838;71;20178;-72
2022/08/18 09:57:29;;;;;;;10.25;6.28;;;;;;;28.12;42.69;92291.88;2011469;71;20162;-72
2022/08/18 10:00:10;;;;;;;9.27;6.05;;;;;;;28.70;42.30;92295.53;2014658;71;20150;-74
2022/08/18 10:02:36;;;;;;;10.20;5.65;;;;;;;28.79;41.45;92305.53;2014703;71;20611;-73
2022/08/18 10:05:20;;;;;;;8.82;5.45;;;;;;;28.82;40.15;92304.06;2014740;71;20154;-72
2022/08/18 10:08:06;;;;;;;9.45;4.95;;;;;;;28.99;40.30;92313.25;2014703;71;20154;-72
2022/08/18 10:10:49;;;;;;;6.43;5.35;;;;;;;29.05;40.31;92310.28;2014785;71;20149;-72
2022/08/18 10:13:51;;;;;;;9.10;5.32;;;;;;;28.98;39.64;92285.75;2014720;71;20157;-72
2022/08/18 10:16:29;;;;;;;8.70;5.28;;;;;;;29.80;38.07;92267.06;2014557;71;20150;-72
2022/08/18 10:19:10;;;;;;;11.25;5.57;;;;;;;30.11;37.69;92288.22;2014766;71;20148;-72
2022/08/18 10:21:54;;;;;;;9.98;5.40;;;;;;;30.52;37.41;92301.97;2014648;71;20150;-74
2022/08/18 10:24:23;;;;;;;10.00;5.65;;;;;;;30.69;37.68;92282.00;2014733;71;20487;-72
2022/08/18 10:26:49;;;;;;;9.27;5.57;;;;;;;30.26;37.87;92270.56;2014758;71;20157;-72
2022/08/18 10:29:27;;;;;;;11.95;5.57;;;;;;;29.61;37.13;92258.69;2014518;71;20576;-72
2022/08/18 10:31:55;;;;;;;10.40;5.80;;;;;;;29.11;38.86;92234.13;2014642;71;20169;-72
2022/08/18 10:34:41;;;;;;;8.95;5.68;;;;;;;29.88;38.58;92226.28;2014612;71;20566;-73
2022/08/18 10:37:41;;;;;;;8.50;5.57;;;;;;;30.16;36.66;92215.63;2014608;71;20241;-73
2022/08/18 10:40:15;;;;;;;8.18;5.40;;;;;;;30.67;36.51;92202.91;2014493;71;20225;-73
2022/08/18 10:42:43;;;;;;;10.38;5.72;;;;;;;30.50;36.62;92188.03;2014644;71;20504;-72
2022/08/18 10:45:24;;;;;;;8.05;4.93;;;;;;;31.00;35.75;92177.44;2014489;71;20173;-74
2022/08/18 10:48:10;;;;;;;8.07;5.45;;;;;;;30.80;35.86;92184.47;2014649;71;20177;-74
2022/08/18 10:50:47;;;;;;;10.20;5.20;;;;;;;31.54;35.37;92188.50;2014566;71;20161;-71
2022/08/18 10:53:34;;;;;;;11.85;5.85;;;;;;;31.37;34.64;92176.56;2014594;71;20154;-73
2022/08/18 10:56:00;;;;;;;8.40;5.30;;;;;;;32.69;34.07;92148.16;2014615;71;20316;-73
2022/08/18 10:58:47;;;;;;;9.23;5.20;;;;;;;32.88;33.02;92132.22;2012906;71;20620;-73
2022/08/18 11:01:35;;;;;;;9.43;5.10;;;;;;;33.68;31.77;92123.78;2010148;71;20658;-73
2022/08/18 11:04:08;;;;;;;8.77;4.78;;;;;;;33.53;31.34;92111.88;2011152;71;20170;-72
2022/08/18 11:06:40;;;;;;;9.95;5.30;;;;;;;33.62;31.25;92103.56;2011167;71;20647;-72
2022/08/18 11:09:08;;;;;;;9.73;4.72;;;;;;;33.45;31.55;92118.03;2011555;71;20162;-72
2022/08/18 11:11:42;;;;;;;8.68;5.20;;;;;;;32.75;32.23;92137.03;2011737;71;20603;-70
2022/08/18 11:14:46;;;;;;;8.55;5.20;;;;;;;32.49;32.95;92106.53;2013944;71;20477;-69
2022/08/18 11:17:34;;;;;;;8.95;4.72;;;;;;;33.19;31.97;92092.66;2014814;71;20223;-70
2022/08/18 11:20:04;;;;;;;10.15;4.80;;;;;;;32.34;32.25;92077.09;2014749;71;20146;-70
2022/08/18 11:22:32;;;;;;;9.15;4.90;;;;;;;31.86;33.91;92067.63;2014962;71;20150;-71
2022/08/18 11:24:59;;;;;;;8.60;4.60;;;;;;;32.12;33.59;92054.50;2014690;71;20165;-71
2022/08/18 11:27:28;;;;;;;10.70;5.20;;;;;;;31.68;34.83;92050.69;2011408;71;20147;-70
2022/08/18 11:29:57;;;;;;;7.70;4.88;;;;;;;31.64;34.65;92071.88;2011668;71;20269;-71
2022/08/18 11:32:31;;;;;;;6.97;4.70;;;;;;;31.45;34.64;92074.59;2014776;71;20677;-71
2022/08/18 11:35:00;;;;;;;5.78;4.32;;;;;;;32.24;34.10;92065.06;2014616;71;20600;-72
2022/08/18 11:37:30;;;;;;;8.25;4.80;;;;;;;32.18;33.98;92059.44;2014668;71;20172;-75
2022/08/18 11:39:59;;;;;;;5.80;4.32;;;;;;;33.10;32.98;92084.19;2011389;71;20615;-73
2022/08/18 11:42:34;;;;;;;8.18;4.53;;;;;;;33.08;33.11;92069.69;2014425;71;20623;-70
2022/08/18 11:45:15;;;;;;;11.27;4.32;;;;;;;32.88;32.37;92071.03;2014531;71;20154;-70
2022/08/18 11:48:15;;;;;;;9.50;4.70;;;;;;;33.79;32.62;92077.44;2011282;71;20158;-74
2022/08/18 11:51:02;;;;;;;8.20;3.70;;;;;;;33.69;30.38;92048.63;2014454;71;20205;-71
2022/08/18 11:53:51;;;;;;;12.85;3.97;;;;;;;34.19;31.30;92051.16;2014639;71;20145;-73
2022/08/18 11:56:24;;;;;;;8.05;3.75;;;;;;;33.59;30.87;92032.22;2014449;71;20611;-71
2022/08/18 11:58:57;;;;;;;8.73;3.60;;;;;;;32.96;31.56;92040.94;2014579;71;20192;-69
2022/08/18 12:01:53;;;;;;;10.43;3.65;;;;;;;32.70;31.10;92041.78;2014544;71;20138;-73
2022/08/18 12:04:19;;;;;;;8.02;3.40;;;;;;;32.51;32.45;92053.31;2014698;71;20161;-70
2022/08/18 12:06:58;;;;;;;10.20;3.40;;;;;;;31.62;33.92;92066.84;2014756;71;20162;-74
2022/08/18 12:09:42;;;;;;;9.02;3.85;;;;;;;30.61;35.93;92067.97;2014627;71;20170;-70
2022/08/18 12:12:31;;;;;;;6.28;3.58;;;;;;;30.31;35.27;92072.31;2014520;71;20219;-69
2022/08/18 12:14:56;;;;;;;7.85;3.75;;;;;;;29.65;36.89;92075.19;2014514;71;20249;-69
2022/08/18 12:17:23;;;;;;;13.07;4.28;;;;;;;29.94;37.33;92083.28;2014483;71;20161;-70
2022/08/18 12:19:49;;;;;;;8.48;4.25;;;;;;;30.01;36.88;92091.09;2014506;71;20209;-75
2022/08/18 12:22:18;;;;;;;8.13;4.10;;;;;;;29.42;37.76;92086.50;2014605;71;20611;-71